createdAt,value
2022-12-22T00:02:33.051Z,101151.50
2022-12-22T00:05:19.848Z,101152.59
2022-12-22T00:08:05.634Z,101145.41
2022-12-22T00:10:51.954Z,101142.03
2022-12-22T00:13:38.239Z,101142.53
2022-12-22T00:16:27.084Z,101135.06
2022-12-22T00:19:12.801Z,101122.06
2022-12-22T00:21:59.998Z,101131.38
2022-12-22T00:24:45.661Z,101141.09
2022-12-22T00:27:39.104Z,101137.81
2022-12-22T00:30:35.374Z,101134.22
2022-12-22T00:33:24.101Z,101127.22
2022-12-22T00:36:10.448Z,101124.75
2022-12-22T00:38:56.086Z,101127.44
2022-12-22T00:41:41.958Z,101125.66
2022-12-22T00:44:27.726Z,101114.50
2022-12-22T00:47:13.395Z,101105.22
2022-12-22T00:50:04.606Z,101098.91
2022-12-22T00:52:50.990Z,101098.78
2022-12-22T00:55:41.945Z,101102.22
2022-12-22T00:58:34.413Z,101097.66
2022-12-22T01:01:21.081Z,101099.47
2022-12-22T01:04:06.880Z,101093.00
2022-12-22T01:06:55.271Z,101094.91
2022-12-22T01:09:42.058Z,101096.41
2022-12-22T01:12:43.053Z,101105.34
2022-12-22T01:15:32.485Z,101102.72
2022-12-22T01:18:18.163Z,101101.41
2022-12-22T01:21:04.199Z,101094.28
2022-12-22T01:23:49.786Z,101094.75
2022-12-22T01:26:35.220Z,101094.72
2022-12-22T01:29:21.073Z,101095.66
2022-12-22T01:32:07.000Z,101096.38
2022-12-22T01:34:55.148Z,101092.25
2022-12-22T01:37:40.814Z,101092.31
2022-12-22T01:40:41.729Z,101094.03
2022-12-22T01:43:44.034Z,101100.69
2022-12-22T01:46:40.749Z,101098.91
2022-12-22T01:49:53.415Z,101099.72
2022-12-22T01:52:43.300Z,101085.59
2022-12-22T01:55:35.089Z,101084.81
2022-12-22T01:58:21.247Z,101071.91
2022-12-22T02:01:06.992Z,101068.59
2022-12-22T02:03:52.780Z,101084.06
2022-12-22T02:06:48.698Z,101094.66
2022-12-22T02:09:59.472Z,101101.56
2022-12-22T02:13:03.520Z,101098.56
2022-12-22T02:16:05.417Z,101085.59
2022-12-22T02:19:01.557Z,101092.81
2022-12-22T02:21:53.635Z,101089.28
2022-12-22T02:25:02.472Z,101086.56
2022-12-22T02:27:52.379Z,101096.13
2022-12-22T02:30:38.655Z,101084.72
2022-12-22T02:33:27.456Z,101081.88
2022-12-22T02:36:39.773Z,101073.38
2022-12-22T02:39:31.451Z,101078.00
2022-12-22T02:42:23.321Z,101069.34
2022-12-22T02:45:57.744Z,101070.03
2022-12-22T02:48:56.212Z,101073.44
2022-12-22T02:51:47.602Z,101075.88
2022-12-22T02:54:36.188Z,101070.06
2022-12-22T02:57:24.847Z,101076.41
2022-12-22T03:00:11.211Z,101070.25
2022-12-22T03:02:57.307Z,101062.41
2022-12-22T03:05:43.269Z,101073.50
2022-12-22T03:08:30.064Z,101070.44
2022-12-22T03:11:15.796Z,101058.88
2022-12-22T03:14:03.559Z,101053.09
2022-12-22T03:16:49.387Z,101054.56
2022-12-22T03:19:36.196Z,101054.75
2022-12-22T03:22:22.105Z,101052.25
2022-12-22T03:25:11.885Z,101043.38
2022-12-22T03:27:39.359Z,101042.38
2022-12-22T03:30:07.318Z,101037.28
2022-12-22T03:32:34.666Z,101041.72
2022-12-22T03:35:03.191Z,101032.91
2022-12-22T03:37:30.726Z,101031.91
2022-12-22T03:39:58.138Z,101027.78
2022-12-22T03:42:44.124Z,101023.47
2022-12-22T03:45:48.177Z,101027.88
2022-12-22T03:48:15.499Z,101016.78
2022-12-22T03:50:43.980Z,101015.94
2022-12-22T03:53:11.353Z,101015.09
2022-12-22T03:55:38.691Z,101015.63
2022-12-22T03:58:06.058Z,101017.38
2022-12-22T04:00:33.453Z,101016.38
2022-12-22T04:03:02.154Z,101021.50
2022-12-22T04:05:29.619Z,101007.88
2022-12-22T04:07:57.088Z,101003.75
2022-12-22T04:10:43.306Z,101005.34
2022-12-22T04:13:10.818Z,101008.75
2022-12-22T04:15:38.246Z,101007.75
2022-12-22T04:18:05.717Z,101011.19
2022-12-22T04:20:33.299Z,101017.56
2022-12-22T04:23:00.885Z,101019.25
2022-12-22T04:25:29.663Z,101021.59
2022-12-22T04:27:57.140Z,101015.56
2022-12-22T04:30:24.612Z,101010.31
2022-12-22T04:32:52.099Z,101016.22
2022-12-22T04:35:21.636Z,101005.66
2022-12-22T04:37:49.063Z,101004.13
2022-12-22T04:40:16.677Z,101006.69
2022-12-22T04:42:44.149Z,101002.63
2022-12-22T04:45:11.791Z,101001.47
2022-12-22T04:47:41.308Z,101006.81
2022-12-22T04:50:09.025Z,101008.59
2022-12-22T04:52:36.575Z,101010.38
2022-12-22T04:55:04.689Z,101011.28
2022-12-22T04:57:37.028Z,101005.19
2022-12-22T05:00:09.786Z,101002.66
2022-12-22T05:02:37.432Z,101002.75
2022-12-22T05:05:05.282Z,100999.31
2022-12-22T05:07:32.749Z,101010.78
2022-12-22T05:10:00.161Z,101024.63
2022-12-22T05:12:45.961Z,101020.16
2022-12-22T05:15:13.796Z,101022.00
2022-12-22T05:17:41.213Z,101015.38
2022-12-22T05:20:09.241Z,101007.16
2022-12-22T05:22:36.753Z,101020.09
2022-12-22T05:25:04.570Z,101016.38
2022-12-22T05:27:31.967Z,101015.50
2022-12-22T05:29:59.567Z,101018.16
2022-12-22T05:32:27.097Z,101033.09
2022-12-22T05:34:54.470Z,101031.44
2022-12-22T05:37:21.913Z,101018.19
2022-12-22T05:39:49.296Z,101026.16
2022-12-22T05:42:35.792Z,101040.22
2022-12-22T05:45:06.240Z,101033.25
2022-12-22T05:47:35.050Z,101032.28
2022-12-22T05:50:02.534Z,101033.13
2022-12-22T05:52:31.096Z,101032.25
2022-12-22T05:54:58.515Z,101032.34
2022-12-22T05:57:27.076Z,101032.31
2022-12-22T05:59:54.662Z,101041.19
2022-12-22T06:02:22.321Z,101026.06
2022-12-22T06:04:49.922Z,100999.69
2022-12-22T06:07:17.352Z,101008.25
2022-12-22T06:09:45.897Z,101001.25
2022-12-22T06:12:14.403Z,100996.25
2022-12-22T06:14:41.885Z,100996.50
2022-12-22T06:17:09.743Z,101006.38
2022-12-22T06:19:37.390Z,101008.94
2022-12-22T06:22:04.970Z,101018.44
2022-12-22T06:24:32.392Z,101015.91
2022-12-22T06:26:59.844Z,101007.81
2022-12-22T06:29:27.399Z,101007.59
2022-12-22T06:31:54.793Z,101012.84
2022-12-22T06:34:22.275Z,101005.91
2022-12-22T06:36:50.135Z,101003.50
2022-12-22T06:39:17.817Z,101006.06
2022-12-22T06:42:05.175Z,100993.81
2022-12-22T06:44:32.626Z,100984.00
2022-12-22T06:47:00.252Z,100998.22
2022-12-22T06:49:27.804Z,101003.56
2022-12-22T06:51:55.342Z,101006.25
2022-12-22T06:54:26.302Z,100996.56
2022-12-22T06:56:55.015Z,101008.03
2022-12-22T06:59:22.365Z,101004.28
2022-12-22T07:01:49.821Z,101004.56
2022-12-22T07:04:20.732Z,101002.66
2022-12-22T07:06:48.642Z,101009.81
2022-12-22T07:09:21.597Z,101005.63
2022-12-22T07:11:49.074Z,101004.38
2022-12-22T07:14:18.573Z,101006.03
2022-12-22T07:16:47.142Z,101008.63
2022-12-22T07:19:14.828Z,101016.41
2022-12-22T07:21:42.275Z,101018.19
2022-12-22T07:24:09.744Z,101011.78
2022-12-22T07:26:37.235Z,101013.53
2022-12-22T07:29:04.728Z,101029.50
2022-12-22T07:32:16.482Z,101035.81
2022-12-22T07:35:18.232Z,101035.88
2022-12-22T07:38:03.993Z,101051.47
2022-12-22T07:40:31.321Z,101061.13
2022-12-22T07:43:17.501Z,101051.56
2022-12-22T07:46:06.508Z,101053.88
2022-12-22T07:49:11.434Z,101046.91
2022-12-22T07:51:58.234Z,101065.22
2022-12-22T07:54:44.283Z,101066.22
2022-12-22T07:57:11.649Z,101054.88
2022-12-22T07:59:57.773Z,101052.38
2022-12-22T08:02:25.268Z,101053.03
2022-12-22T08:05:11.535Z,101056.69
2022-12-22T08:07:57.467Z,101059.50
2022-12-22T08:10:43.472Z,101068.97
2022-12-22T08:13:29.479Z,101064.91
2022-12-22T08:16:15.191Z,101053.53
2022-12-22T08:18:42.927Z,101056.75
2022-12-22T08:21:10.870Z,101061.13
2022-12-22T08:23:38.597Z,101066.50
2022-12-22T08:26:14.178Z,101063.63
2022-12-22T08:29:08.833Z,101062.91
2022-12-22T08:31:55.512Z,101062.25
2022-12-22T08:34:41.757Z,101060.38
2022-12-22T08:37:15.012Z,101063.84
2022-12-22T08:39:46.670Z,101064.66
2022-12-22T08:42:33.888Z,101063.19
2022-12-22T08:45:20.297Z,101076.31
2022-12-22T08:47:47.858Z,101067.50
2022-12-22T08:50:15.296Z,101049.22
2022-12-22T08:52:42.816Z,101046.78
2022-12-22T08:55:10.460Z,101054.78
2022-12-22T08:57:38.275Z,101049.56
2022-12-22T09:00:08.623Z,101042.03
2022-12-22T09:02:36.904Z,101042.28
2022-12-22T09:05:04.881Z,101049.44
2022-12-22T09:07:32.311Z,101044.19
2022-12-22T09:10:00.090Z,101044.28
2022-12-22T09:12:27.594Z,101040.09
2022-12-22T09:14:55.038Z,101039.91
2022-12-22T09:17:22.451Z,101046.91
2022-12-22T09:19:49.808Z,101043.69
2022-12-22T09:22:21.724Z,101042.94
2022-12-22T09:24:52.590Z,101043.88
2022-12-22T09:27:19.917Z,101033.00
2022-12-22T09:29:47.364Z,101045.63
2022-12-22T09:32:14.781Z,101032.66
2022-12-22T09:34:42.211Z,101038.84
2022-12-22T09:37:09.698Z,101031.91
2022-12-22T09:39:37.339Z,101039.72
2022-12-22T09:42:04.859Z,101024.13
2022-12-22T09:44:39.995Z,101026.81
2022-12-22T09:47:36.109Z,101015.31
2022-12-22T09:50:08.975Z,101009.09
2022-12-22T09:52:36.317Z,101019.38
2022-12-22T09:55:12.936Z,101006.44
2022-12-22T09:57:40.365Z,101000.56
2022-12-22T10:00:15.095Z,101004.88
2022-12-22T10:02:57.634Z,101004.78
2022-12-22T10:05:38.617Z,101007.47
2022-12-22T10:08:18.875Z,101009.97
2022-12-22T10:10:53.767Z,101015.31
2022-12-22T10:13:21.274Z,101016.91
2022-12-22T10:15:52.082Z,101010.59
2022-12-22T10:18:30.359Z,101010.00
2022-12-22T10:21:14.589Z,101007.13
2022-12-22T10:23:47.115Z,101003.94
2022-12-22T10:26:29.300Z,100999.38
2022-12-22T10:29:10.330Z,100978.41
2022-12-22T10:32:01.982Z,100980.34
2022-12-22T10:34:30.038Z,100983.13
2022-12-22T10:37:02.705Z,100982.13
2022-12-22T10:39:34.141Z,100980.22
2022-12-22T10:42:13.468Z,100980.50
2022-12-22T10:44:45.774Z,100976.00
2022-12-22T10:47:18.179Z,100984.56
2022-12-22T10:49:49.585Z,100973.25
2022-12-22T10:52:30.469Z,100978.56
2022-12-22T10:55:17.949Z,100971.56
2022-12-22T10:57:45.472Z,100977.81
2022-12-22T11:00:31.994Z,100977.72
2022-12-22T11:03:01.758Z,100983.19
2022-12-22T11:05:31.274Z,100980.34
2022-12-22T11:08:27.176Z,100977.59
2022-12-22T11:11:07.858Z,100974.06
2022-12-22T11:13:38.031Z,100974.94
2022-12-22T11:16:25.449Z,100981.13
2022-12-22T11:19:01.517Z,100984.41
2022-12-22T11:21:30.739Z,100983.66
2022-12-22T11:24:08.672Z,100988.19
2022-12-22T11:27:01.773Z,100979.34
2022-12-22T11:29:47.642Z,100978.66
2022-12-22T11:32:18.753Z,100979.66
2022-12-22T11:35:00.523Z,100982.66
2022-12-22T11:37:56.676Z,100975.06
2022-12-22T11:40:32.956Z,100979.59
2022-12-22T11:43:33.162Z,100970.81
2022-12-22T11:46:06.541Z,100965.69
2022-12-22T11:48:45.865Z,100962.16
2022-12-22T11:51:34.307Z,100959.69
2022-12-22T11:54:21.364Z,100943.88
2022-12-22T11:57:02.649Z,100953.59
2022-12-22T11:59:47.435Z,100943.06
2022-12-22T12:02:20.894Z,100928.31
2022-12-22T12:05:20.867Z,100909.94
2022-12-22T12:07:58.117Z,100912.44
2022-12-22T12:10:34.569Z,100906.38
2022-12-22T12:13:10.753Z,100902.06
2022-12-22T12:15:41.117Z,100917.84
2022-12-22T12:18:33.508Z,100899.47
2022-12-22T12:21:11.183Z,100895.97
2022-12-22T12:23:44.812Z,100892.44
2022-12-22T12:26:40.493Z,100895.97
2022-12-22T12:29:07.879Z,100888.06
2022-12-22T12:31:53.907Z,100898.56
2022-12-22T12:34:22.620Z,100882.81
2022-12-22T12:37:14.558Z,100876.56
2022-12-22T12:39:59.840Z,100876.63
2022-12-22T12:42:37.096Z,100865.28
2022-12-22T12:45:35.287Z,100852.16
2022-12-22T12:48:20.916Z,100867.91
2022-12-22T12:50:52.264Z,100869.59
2022-12-22T12:53:21.837Z,100872.22
2022-12-22T12:55:53.707Z,100881.81
2022-12-22T12:58:39.016Z,100869.56
2022-12-22T13:01:32.852Z,100859.09
2022-12-22T13:04:03.762Z,100859.00
2022-12-22T13:07:01.510Z,100855.50
2022-12-22T13:12:48.625Z,100858.94
2022-12-22T13:15:41.793Z,100852.97
2022-12-22T13:18:24.592Z,100856.41
2022-12-22T13:21:52.434Z,100861.66
2022-12-22T13:24:47.206Z,100859.97
2022-12-22T13:27:16.940Z,100869.50
2022-12-22T13:29:47.419Z,100863.47
2022-12-22T13:32:24.029Z,100857.34
2022-12-22T13:35:33.714Z,100857.34
2022-12-22T13:38:04.853Z,100844.25
2022-12-22T13:40:43.284Z,100846.75
2022-12-22T13:43:17.880Z,100853.72
2022-12-22T13:45:50.272Z,100848.53
2022-12-22T13:48:44.480Z,100840.56
2022-12-22T13:51:36.057Z,100841.47
2022-12-22T13:54:11.891Z,100835.25
2022-12-22T13:56:42.568Z,100829.13
2022-12-22T13:59:28.742Z,100825.59
2022-12-22T14:02:08.159Z,100829.16
2022-12-22T14:04:38.541Z,100830.03
2022-12-22T14:07:12.793Z,100829.16
2022-12-22T14:09:49.077Z,100833.56
2022-12-22T14:12:25.413Z,100834.34
2022-12-22T14:14:54.970Z,100834.34
2022-12-22T14:17:25.978Z,100838.75
2022-12-22T14:19:57.720Z,100841.25
2022-12-22T14:22:29.020Z,100834.25
2022-12-22T14:25:04.524Z,100831.69
2022-12-22T14:27:32.705Z,100822.06
2022-12-22T14:30:02.893Z,100821.97
2022-12-22T14:32:38.036Z,100835.09
2022-12-22T14:35:27.502Z,100839.44
2022-12-22T14:38:07.088Z,100841.28
2022-12-22T14:40:56.781Z,100843.00
2022-12-22T14:43:28.591Z,100850.91
2022-12-22T14:46:05.802Z,100848.16
2022-12-22T14:48:38.093Z,100848.25
2022-12-22T14:51:06.419Z,100852.56
2022-12-22T14:53:48.868Z,100857.88
2022-12-22T14:56:18.615Z,100840.41
2022-12-22T14:59:13.162Z,100847.34
2022-12-22T15:01:56.023Z,100835.06
2022-12-22T15:04:23.687Z,100850.84
2022-12-22T15:06:51.280Z,100849.09
2022-12-22T15:09:39.704Z,100855.19
2022-12-22T15:12:14.031Z,100851.59
2022-12-22T15:14:42.542Z,100851.69
2022-12-22T15:17:25.858Z,100859.53
2022-12-22T15:19:59.429Z,100853.50
2022-12-22T15:22:27.165Z,100851.72
2022-12-22T15:24:56.996Z,100850.81
2022-12-22T15:27:24.751Z,100842.06
2022-12-22T15:29:52.574Z,100849.09
2022-12-22T15:32:20.402Z,100842.13
2022-12-22T15:34:48.146Z,100837.63
2022-12-22T15:37:15.995Z,100835.91
2022-12-22T15:39:45.655Z,100842.75
2022-12-22T15:42:13.478Z,100848.31
2022-12-22T15:44:43.618Z,100842.22
2022-12-22T16:01:37.370Z,100825.41
2022-12-22T16:49:36.218Z,100825.25
2022-12-22T16:50:01.695Z,100824.41
2022-12-22T16:52:40.948Z,100816.47
2022-12-22T16:55:19.856Z,100810.22
2022-12-22T16:57:48.255Z,100803.22
2022-12-22T17:00:19.544Z,100806.91
2022-12-22T17:02:51.850Z,100809.53
2022-12-22T17:05:29.204Z,100807.84
2022-12-22T17:11:21.657Z,100812.97
2022-12-22T17:13:52.819Z,100810.97
2022-12-22T17:16:23.193Z,100820.72
2022-12-22T17:18:50.927Z,100814.69
2022-12-22T17:21:23.339Z,100817.25
2022-12-22T17:24:04.935Z,100818.22
2022-12-22T17:26:47.721Z,100825.28
2022-12-22T17:29:28.572Z,100821.44
2022-12-22T17:31:57.303Z,100814.56
2022-12-22T17:34:25.008Z,100819.03
2022-12-22T17:36:52.600Z,100823.50
2022-12-22T17:39:22.421Z,100820.91
2022-12-22T17:41:57.525Z,100832.25
2022-12-22T17:44:30.497Z,100839.38
2022-12-22T17:46:58.133Z,100832.34
2022-12-22T17:49:56.175Z,100846.22
2022-12-22T17:52:28.546Z,100847.06
2022-12-22T17:54:57.074Z,100848.06
2022-12-22T17:57:27.947Z,100850.66
2022-12-22T17:59:56.725Z,100848.75
2022-12-22T18:02:25.730Z,100848.94
2022-12-22T18:04:54.494Z,100846.34
2022-12-22T18:07:24.879Z,100847.25
2022-12-22T18:09:59.040Z,100854.25
2022-12-22T18:12:26.720Z,100858.50
2022-12-22T18:14:57.373Z,100858.44
2022-12-22T18:17:35.475Z,100855.72
2022-12-22T18:20:03.980Z,100855.91
2022-12-22T18:22:33.072Z,100867.38
2022-12-22T18:25:00.726Z,100862.94
2022-12-22T18:27:29.483Z,100866.53
2022-12-22T18:29:57.262Z,100862.78
2022-12-22T18:32:29.414Z,100865.44
2022-12-22T18:34:56.899Z,100862.75
2022-12-22T18:37:24.343Z,100867.22
2022-12-22T18:39:51.915Z,100875.19
2022-12-22T18:42:23.063Z,100876.00
2022-12-22T18:44:51.599Z,100869.66
2022-12-22T18:47:19.363Z,100863.44
2022-12-22T18:49:47.205Z,100867.06
2022-12-22T18:52:19.185Z,100876.84
2022-12-22T18:54:47.066Z,100875.72
2022-12-22T18:57:19.593Z,100875.59
2022-12-22T18:59:48.884Z,100879.22
2022-12-22T19:02:20.705Z,100884.50
2022-12-22T19:04:49.857Z,100887.19
2022-12-22T19:07:20.075Z,100883.69
2022-12-22T19:09:48.465Z,100877.53
2022-12-22T19:12:23.381Z,100868.91
2022-12-22T19:14:56.577Z,100867.13
2022-12-22T19:17:28.894Z,100867.09
2022-12-22T19:19:58.162Z,100866.84
2022-12-22T19:22:25.751Z,100860.72
2022-12-22T19:24:57.572Z,100866.19
2022-12-22T19:27:27.890Z,100878.44
2022-12-22T19:30:04.235Z,100869.69
2022-12-22T19:32:42.199Z,100863.56
2022-12-22T19:35:18.386Z,100871.38
2022-12-22T19:37:47.348Z,100856.75
2022-12-22T19:40:17.007Z,100865.63
2022-12-22T19:42:47.631Z,100868.22
2022-12-22T19:45:25.752Z,100866.34
2022-12-22T19:47:56.999Z,100869.03
2022-12-22T19:50:50.952Z,100874.19
2022-12-22T19:53:18.952Z,100862.75
2022-12-22T19:55:54.595Z,100848.72
2022-12-22T19:58:34.140Z,100853.88
2022-12-22T20:01:02.135Z,100864.53
2022-12-22T20:03:29.913Z,100855.66
2022-12-22T20:05:57.733Z,100863.47
2022-12-22T20:08:25.720Z,100872.06
2022-12-22T20:10:58.336Z,100877.41
2022-12-22T20:13:31.563Z,100876.72
2022-12-22T20:16:02.366Z,100869.03
2022-12-22T20:18:37.738Z,100871.59
2022-12-22T20:21:12.642Z,100869.81
2022-12-22T20:23:41.019Z,100871.50
2022-12-22T20:26:19.395Z,100869.69
2022-12-22T20:28:49.800Z,100878.34
2022-12-22T20:31:20.567Z,100867.91
2022-12-22T20:33:49.057Z,100869.81
2022-12-22T20:36:32.149Z,100876.69
2022-12-22T20:39:01.516Z,100883.78
2022-12-22T20:41:32.115Z,100887.25
2022-12-22T20:44:04.944Z,100881.94
2022-12-22T20:56:37.008Z,100866.09
2022-12-22T20:59:23.887Z,100857.25
2022-12-22T21:01:52.918Z,100869.34
2022-12-22T21:04:27.834Z,100863.34
2022-12-22T21:07:25.484Z,100866.94
2022-12-22T21:09:53.290Z,100872.94
2022-12-22T21:12:20.950Z,100867.72
2022-12-22T21:14:49.562Z,100867.03
2022-12-22T21:17:19.159Z,100866.06
2022-12-22T21:19:46.973Z,100880.84
2022-12-22T21:22:14.787Z,100882.66
2022-12-22T21:24:44.015Z,100894.06
2022-12-22T21:27:20.448Z,100874.84
2022-12-22T21:30:26.899Z,100871.16
2022-12-22T21:32:55.269Z,100862.25
2022-12-22T21:35:29.314Z,100862.19
2022-12-22T21:37:59.976Z,100861.50
2022-12-22T21:40:30.104Z,100866.13
2022-12-22T21:42:58.263Z,100870.50
2022-12-22T21:45:29.915Z,100866.94
2022-12-22T21:48:02.240Z,100868.72
2022-12-22T21:50:32.672Z,100874.91
2022-12-22T21:53:01.636Z,100875.81
2022-12-22T21:55:32.391Z,100876.72
2022-12-22T21:58:00.907Z,100870.66
2022-12-22T22:00:30.188Z,100871.47
2022-12-22T22:03:23.646Z,100874.06
2022-12-22T22:05:52.063Z,100869.22
2022-12-22T22:08:19.735Z,100866.44
2022-12-22T22:10:47.442Z,100877.97
2022-12-22T22:13:15.691Z,100866.63
2022-12-22T22:15:44.088Z,100865.72
2022-12-22T22:18:19.784Z,100881.66
2022-12-22T22:20:48.072Z,100883.56
2022-12-22T22:23:15.941Z,100894.00
2022-12-22T22:25:43.710Z,100902.72
2022-12-22T22:28:11.908Z,100892.06
2022-12-22T22:30:41.999Z,100887.72
2022-12-22T22:33:19.835Z,100881.44
2022-12-22T22:35:47.766Z,100880.69
2022-12-22T22:38:19.298Z,100889.53
2022-12-22T22:40:48.343Z,100876.38
2022-12-22T22:43:17.391Z,100865.91
2022-12-22T22:45:46.747Z,100843.22
2022-12-22T22:48:26.738Z,100872.81
2022-12-22T22:50:57.200Z,100864.16
2022-12-22T22:53:27.046Z,100858.81
2022-12-22T22:55:54.884Z,100856.16
2022-12-22T22:58:22.654Z,100862.41
2022-12-22T23:00:50.311Z,100867.41
2022-12-22T23:03:18.193Z,100862.19
2022-12-22T23:05:46.149Z,100848.97
2022-12-22T23:08:13.836Z,100846.09
2022-12-22T23:10:53.353Z,100850.81
2022-12-22T23:13:21.276Z,100843.88
2022-12-22T23:16:03.693Z,100854.19
2022-12-22T23:18:32.465Z,100845.75
2022-12-22T23:21:02.266Z,100838.72
2022-12-22T23:23:32.088Z,100828.25
2022-12-22T23:25:59.907Z,100829.94
2022-12-22T23:28:27.631Z,100837.81
2022-12-22T23:30:55.376Z,100833.50
2022-12-22T23:33:23.053Z,100824.81
2022-12-22T23:35:51.269Z,100815.16
2022-12-22T23:38:23.785Z,100809.97
2022-12-22T23:40:53.431Z,100810.91
2022-12-22T23:43:22.429Z,100817.97
2022-12-22T23:45:49.967Z,100816.16
2022-12-22T23:48:17.783Z,100812.69
2022-12-22T23:50:48.685Z,100810.91
2022-12-22T23:53:17.006Z,100807.47
2022-12-22T23:55:45.745Z,100804.78
2022-12-22T23:58:14.212Z,100800.09
